sensor_id;sensor_type;location;lat;lon;timestamp;temperature;humidity
41694;DHT22;27377;50.666;9.150;2024-03-06T00:00:03;6.70;99.90
41694;DHT22;27377;50.666;9.150;2024-03-06T00:02:52;6.70;99.90
41694;DHT22;27377;50.666;9.150;2024-03-06T00:05:36;6.70;99.90
41694;DHT22;27377;50.666;9.150;2024-03-06T00:08:20;6.70;99.90
41694;DHT22;27377;50.666;9.150;2024-03-06T00:11:04;6.70;99.90
41694;DHT22;27377;50.666;9.150;2024-03-06T00:13:49;6.70;99.90
41694;DHT22;27377;50.666;9.150;2024-03-06T00:16:33;6.70;99.90
41694;DHT22;27377;50.666;9.150;2024-03-06T00:19:18;6.70;99.90
41694;DHT22;27377;50.666;9.150;2024-03-06T00:22:03;6.60;99.90
41694;DHT22;27377;50.666;9.150;2024-03-06T00:24:48;6.70;99.90
41694;DHT22;27377;50.666;9.150;2024-03-06T00:27:33;6.60;99.90
41694;DHT22;27377;50.666;9.150;2024-03-06T00:30:17;6.60;99.90
41694;DHT22;27377;50.666;9.150;2024-03-06T00:33:02;6.60;99.90
41694;DHT22;27377;50.666;9.150;2024-03-06T00:35:47;6.60;99.90
41694;DHT22;27377;50.666;9.150;2024-03-06T00:38:31;6.60;99.90
41694;DHT22;27377;50.666;9.150;2024-03-06T00:41:15;6.50;99.90
41694;DHT22;27377;50.666;9.150;2024-03-06T00:43:59;6.50;99.90
41694;DHT22;27377;50.666;9.150;2024-03-06T00:46:43;6.60;99.90
41694;DHT22;27377;50.666;9.150;2024-03-06T00:49:27;6.60;99.90
41694;DHT22;27377;50.666;9.150;2024-03-06T00:52:12;6.60;99.90
41694;DHT22;27377;50.666;9.150;2024-03-06T00:54:56;6.50;99.90
41694;DHT22;27377;50.666;9.150;2024-03-06T00:57:41;6.50;99.90
41694;DHT22;27377;50.666;9.150;2024-03-06T01:00:25;6.50;99.90
41694;DHT22;27377;50.666;9.150;2024-03-06T01:03:09;6.50;99.90
41694;DHT22;27377;50.666;9.150;2024-03-06T01:05:53;6.50;99.90
41694;DHT22;27377;50.666;9.150;2024-03-06T01:08:37;6.50;99.90
41694;DHT22;27377;50.666;9.150;2024-03-06T01:11:21;6.50;99.90
41694;DHT22;27377;50.666;9.150;2024-03-06T01:14:05;6.50;99.90
41694;DHT22;27377;50.666;9.150;2024-03-06T01:16:49;6.40;99.90
41694;DHT22;27377;50.666;9.150;2024-03-06T01:19:33;6.40;99.90
41694;DHT22;27377;50.666;9.150;2024-03-06T01:22:18;6.40;99.90
41694;DHT22;27377;50.666;9.150;2024-03-06T01:25:02;6.40;99.90
41694;DHT22;27377;50.666;9.150;2024-03-06T01:27:50;6.50;99.90
41694;DHT22;27377;50.666;9.150;2024-03-06T01:30:34;6.50;99.90
41694;DHT22;27377;50.666;9.150;2024-03-06T01:33:18;6.40;99.90
41694;DHT22;27377;50.666;9.150;2024-03-06T01:36:02;6.50;99.90
41694;DHT22;27377;50.666;9.150;2024-03-06T01:38:46;6.50;99.90
41694;DHT22;27377;50.666;9.150;2024-03-06T01:41:30;6.50;99.90
41694;DHT22;27377;50.666;9.150;2024-03-06T01:44:15;6.50;99.90
41694;DHT22;27377;50.666;9.150;2024-03-06T01:47:00;6.40;99.90
41694;DHT22;27377;50.666;9.150;2024-03-06T01:49:44;6.40;99.90
41694;DHT22;27377;50.666;9.150;2024-03-06T01:52:28;6.40;99.90
41694;DHT22;27377;50.666;9.150;2024-03-06T01:55:16;6.50;99.90
41694;DHT22;27377;50.666;9.150;2024-03-06T01:58:00;6.40;99.90
41694;DHT22;27377;50.666;9.150;2024-03-06T02:00:45;6.40;99.90
41694;DHT22;27377;50.666;9.150;2024-03-06T02:03:29;6.40;99.90
41694;DHT22;27377;50.666;9.150;2024-03-06T02:06:15;6.40;99.90
41694;DHT22;27377;50.666;9.150;2024-03-06T02:09:03;6.40;99.90
41694;DHT22;27377;50.666;9.150;2024-03-06T02:11:47;6.40;99.90
41694;DHT22;27377;50.666;9.150;2024-03-06T02:14:31;6.40;99.90
41694;DHT22;27377;50.666;9.150;2024-03-06T02:17:15;6.40;99.90
41694;DHT22;27377;50.666;9.150;2024-03-06T02:19:59;6.40;99.90
41694;DHT22;27377;50.666;9.150;2024-03-06T02:22:43;6.30;99.90
41694;DHT22;27377;50.666;9.150;2024-03-06T02:25:27;6.40;99.90
41694;DHT22;27377;50.666;9.150;2024-03-06T02:28:11;6.30;99.90
41694;DHT22;27377;50.666;9.150;2024-03-06T02:30:55;6.40;99.90
41694;DHT22;27377;50.666;9.150;2024-03-06T02:33:40;6.40;99.90
41694;DHT22;27377;50.666;9.150;2024-03-06T02:36:24;6.30;99.90
41694;DHT22;27377;50.666;9.150;2024-03-06T02:39:08;6.30;99.90
41694;DHT22;27377;50.666;9.150;2024-03-06T02:41:52;6.30;99.90
41694;DHT22;27377;50.666;9.150;2024-03-06T02:44:37;6.30;99.90
41694;DHT22;27377;50.666;9.150;2024-03-06T02:47:21;6.30;99.90
41694;DHT22;27377;50.666;9.150;2024-03-06T02:50:05;6.30;99.90
41694;DHT22;27377;50.666;9.150;2024-03-06T02:52:49;6.20;99.90
41694;DHT22;27377;50.666;9.150;2024-03-06T02:55:35;6.20;99.90
41694;DHT22;27377;50.666;9.150;2024-03-06T02:58:19;6.20;99.90
41694;DHT22;27377;50.666;9.150;2024-03-06T03:01:04;6.20;99.90
41694;DHT22;27377;50.666;9.150;2024-03-06T03:03:48;6.20;99.90
41694;DHT22;27377;50.666;9.150;2024-03-06T03:06:33;6.20;99.90
41694;DHT22;27377;50.666;9.150;2024-03-06T03:09:17;6.20;99.90
41694;DHT22;27377;50.666;9.150;2024-03-06T03:12:02;6.20;99.90
41694;DHT22;27377;50.666;9.150;2024-03-06T03:14:47;6.20;99.90
41694;DHT22;27377;50.666;9.150;2024-03-06T03:17:31;6.20;99.90
41694;DHT22;27377;50.666;9.150;2024-03-06T03:20:16;6.20;99.90
41694;DHT22;27377;50.666;9.150;2024-03-06T03:23:01;6.20;99.90
41694;DHT22;27377;50.666;9.150;2024-03-06T03:25:46;6.20;99.90
41694;DHT22;27377;50.666;9.150;2024-03-06T03:28:31;6.20;99.90
41694;DHT22;27377;50.666;9.150;2024-03-06T03:31:16;6.20;99.90
41694;DHT22;27377;50.666;9.150;2024-03-06T03:34:00;6.20;99.90
41694;DHT22;27377;50.666;9.150;2024-03-06T03:36:45;6.20;99.90
41694;DHT22;27377;50.666;9.150;2024-03-06T03:39:30;6.10;99.90
41694;DHT22;27377;50.666;9.150;2024-03-06T03:42:20;6.10;99.90
41694;DHT22;27377;50.666;9.150;2024-03-06T03:45:04;6.10;99.90
41694;DHT22;27377;50.666;9.150;2024-03-06T03:47:49;6.10;99.90
41694;DHT22;27377;50.666;9.150;2024-03-06T03:50:33;6.10;99.90
41694;DHT22;27377;50.666;9.150;2024-03-06T03:53:20;6.10;99.90
41694;DHT22;27377;50.666;9.150;2024-03-06T03:56:04;6.20;99.90
41694;DHT22;27377;50.666;9.150;2024-03-06T03:58:50;6.20;99.90
41694;DHT22;27377;50.666;9.150;2024-03-06T04:01:35;6.10;99.90
41694;DHT22;27377;50.666;9.150;2024-03-06T04:04:19;6.10;99.90
41694;DHT22;27377;50.666;9.150;2024-03-06T04:07:15;6.00;99.90
41694;DHT22;27377;50.666;9.150;2024-03-06T04:10:00;6.00;99.90
41694;DHT22;27377;50.666;9.150;2024-03-06T04:12:45;6.00;99.90
41694;DHT22;27377;50.666;9.150;2024-03-06T04:15:33;6.00;99.90
41694;DHT22;27377;50.666;9.150;2024-03-06T04:18:18;6.00;99.90
41694;DHT22;27377;50.666;9.150;2024-03-06T04:21:06;6.10;99.90
41694;DHT22;27377;50.666;9.150;2024-03-06T04:23:50;6.10;99.90
41694;DHT22;27377;50.666;9.150;2024-03-06T04:26:35;6.00;99.90
41694;DHT22;27377;50.666;9.150;2024-03-06T04:29:20;6.00;99.90
41694;DHT22;27377;50.666;9.150;2024-03-06T04:32:04;6.00;99.90
41694;DHT22;27377;50.666;9.150;2024-03-06T04:34:48;6.10;99.90
41694;DHT22;27377;50.666;9.150;2024-03-06T04:37:32;6.00;99.90
41694;DHT22;27377;50.666;9.150;2024-03-06T04:40:17;6.00;99.90
41694;DHT22;27377;50.666;9.150;2024-03-06T04:43:04;6.00;99.90
41694;DHT22;27377;50.666;9.150;2024-03-06T04:45:48;6.00;99.90
41694;DHT22;27377;50.666;9.150;2024-03-06T04:48:32;6.00;99.90
41694;DHT22;27377;50.666;9.150;2024-03-06T04:51:17;6.00;99.90
41694;DHT22;27377;50.666;9.150;2024-03-06T04:54:03;6.00;99.90
41694;DHT22;27377;50.666;9.150;2024-03-06T04:56:47;6.00;99.90
41694;DHT22;27377;50.666;9.150;2024-03-06T04:59:31;5.90;99.90
41694;DHT22;27377;50.666;9.150;2024-03-06T05:02:15;6.00;99.90
41694;DHT22;27377;50.666;9.150;2024-03-06T05:05:00;5.90;99.90
41694;DHT22;27377;50.666;9.150;2024-03-06T05:07:44;6.00;99.90
41694;DHT22;27377;50.666;9.150;2024-03-06T05:10:29;5.90;99.90
41694;DHT22;27377;50.666;9.150;2024-03-06T05:13:13;5.90;99.90
41694;DHT22;27377;50.666;9.150;2024-03-06T05:15:57;5.80;99.90
41694;DHT22;27377;50.666;9.150;2024-03-06T05:18:41;5.80;99.90
41694;DHT22;27377;50.666;9.150;2024-03-06T05:21:25;5.80;99.90
41694;DHT22;27377;50.666;9.150;2024-03-06T05:24:10;5.90;99.90
41694;DHT22;27377;50.666;9.150;2024-03-06T05:26:55;5.80;99.90
41694;DHT22;27377;50.666;9.150;2024-03-06T05:29:39;5.80;99.90
41694;DHT22;27377;50.666;9.150;2024-03-06T05:32:24;5.80;99.90
41694;DHT22;27377;50.666;9.150;2024-03-06T05:35:08;5.80;99.90
41694;DHT22;27377;50.666;9.150;2024-03-06T05:37:55;5.80;99.90
41694;DHT22;27377;50.666;9.150;2024-03-06T05:40:41;5.90;99.90
41694;DHT22;27377;50.666;9.150;2024-03-06T05:43:29;5.90;99.90
41694;DHT22;27377;50.666;9.150;2024-03-06T05:46:13;5.90;99.90
41694;DHT22;27377;50.666;9.150;2024-03-06T05:48:57;5.90;99.90
41694;DHT22;27377;50.666;9.150;2024-03-06T05:51:41;5.90;99.90
41694;DHT22;27377;50.666;9.150;2024-03-06T05:54:25;5.80;99.90
41694;DHT22;27377;50.666;9.150;2024-03-06T05:57:09;5.80;99.90
41694;DHT22;27377;50.666;9.150;2024-03-06T05:59:53;5.80;99.90
41694;DHT22;27377;50.666;9.150;2024-03-06T06:02:37;5.80;99.90
41694;DHT22;27377;50.666;9.150;2024-03-06T06:05:22;5.80;99.90
41694;DHT22;27377;50.666;9.150;2024-03-06T06:08:06;5.80;99.90
41694;DHT22;27377;50.666;9.150;2024-03-06T06:10:51;5.80;99.90
41694;DHT22;27377;50.666;9.150;2024-03-06T06:13:39;5.70;99.90
41694;DHT22;27377;50.666;9.150;2024-03-06T06:16:23;5.80;99.90
41694;DHT22;27377;50.666;9.150;2024-03-06T06:19:07;5.80;99.90
41694;DHT22;27377;50.666;9.150;2024-03-06T06:21:54;5.70;99.90
41694;DHT22;27377;50.666;9.150;2024-03-06T06:24:38;5.70;99.90
41694;DHT22;27377;50.666;9.150;2024-03-06T06:27:23;5.70;99.90
41694;DHT22;27377;50.666;9.150;2024-03-06T06:30:09;5.70;99.90
41694;DHT22;27377;50.666;9.150;2024-03-06T06:32:55;5.80;99.90
41694;DHT22;27377;50.666;9.150;2024-03-06T06:35:39;5.80;99.90
41694;DHT22;27377;50.666;9.150;2024-03-06T06:38:23;5.70;99.90
41694;DHT22;27377;50.666;9.150;2024-03-06T06:41:07;5.70;99.90
41694;DHT22;27377;50.666;9.150;2024-03-06T06:43:51;5.70;99.90
41694;DHT22;27377;50.666;9.150;2024-03-06T06:46:19;5.70;99.90
41694;DHT22;27377;50.666;9.150;2024-03-06T06:49:03;5.70;99.90
41694;DHT22;27377;50.666;9.150;2024-03-06T06:51:47;5.70;99.90
41694;DHT22;27377;50.666;9.150;2024-03-06T06:54:33;5.80;99.90
41694;DHT22;27377;50.666;9.150;2024-03-06T06:57:17;5.80;99.90
41694;DHT22;27377;50.666;9.150;2024-03-06T07:00:02;5.80;99.90
41694;DHT22;27377;50.666;9.150;2024-03-06T07:02:54;5.80;99.90
41694;DHT22;27377;50.666;9.150;2024-03-06T07:05:38;5.80;99.90
41694;DHT22;27377;50.666;9.150;2024-03-06T07:08:22;5.80;99.90
41694;DHT22;27377;50.666;9.150;2024-03-06T07:11:07;5.90;99.90
41694;DHT22;27377;50.666;9.150;2024-03-06T07:13:51;5.90;99.90
41694;DHT22;27377;50.666;9.150;2024-03-06T07:16:44;6.00;99.90
41694;DHT22;27377;50.666;9.150;2024-03-06T07:19:28;6.00;99.90
41694;DHT22;27377;50.666;9.150;2024-03-06T07:22:13;6.10;99.90
41694;DHT22;27377;50.666;9.150;2024-03-06T07:24:57;6.10;99.90
41694;DHT22;27377;50.666;9.150;2024-03-06T07:27:41;6.10;99.90
41694;DHT22;27377;50.666;9.150;2024-03-06T07:30:25;6.20;99.90
41694;DHT22;27377;50.666;9.150;2024-03-06T07:33:09;6.20;99.90
41694;DHT22;27377;50.666;9.150;2024-03-06T07:35:53;6.20;99.90
41694;DHT22;27377;50.666;9.150;2024-03-06T07:38:38;6.20;99.90
41694;DHT22;27377;50.666;9.150;2024-03-06T07:41:22;6.20;99.90
41694;DHT22;27377;50.666;9.150;2024-03-06T07:44:08;6.20;99.90
41694;DHT22;27377;50.666;9.150;2024-03-06T07:46:52;6.20;99.90
41694;DHT22;27377;50.666;9.150;2024-03-06T07:49:38;6.30;99.90
41694;DHT22;27377;50.666;9.150;2024-03-06T07:52:22;6.30;99.90
41694;DHT22;27377;50.666;9.150;2024-03-06T07:55:06;6.30;99.90
41694;DHT22;27377;50.666;9.150;2024-03-06T07:57:50;6.30;99.90
41694;DHT22;27377;50.666;9.150;2024-03-06T08:00:35;6.30;99.90
41694;DHT22;27377;50.666;9.150;2024-03-06T08:03:19;6.30;99.90
41694;DHT22;27377;50.666;9.150;2024-03-06T08:06:03;6.40;99.90
41694;DHT22;27377;50.666;9.150;2024-03-06T08:08:48;6.40;99.90
41694;DHT22;27377;50.666;9.150;2024-03-06T08:11:32;6.40;99.90
41694;DHT22;27377;50.666;9.150;2024-03-06T08:14:17;6.40;99.90
41694;DHT22;27377;50.666;9.150;2024-03-06T08:17:01;6.40;99.90
41694;DHT22;27377;50.666;9.150;2024-03-06T08:19:46;6.40;99.90
41694;DHT22;27377;50.666;9.150;2024-03-06T08:22:30;6.40;99.90
41694;DHT22;27377;50.666;9.150;2024-03-06T08:25:14;6.50;99.90
41694;DHT22;27377;50.666;9.150;2024-03-06T08:27:58;6.50;99.90
41694;DHT22;27377;50.666;9.150;2024-03-06T08:30:47;6.50;99.90
41694;DHT22;27377;50.666;9.150;2024-03-06T08:33:31;6.50;99.90
41694;DHT22;27377;50.666;9.150;2024-03-06T08:36:15;6.50;99.90
41694;DHT22;27377;50.666;9.150;2024-03-06T08:38:59;6.50;99.90
41694;DHT22;27377;50.666;9.150;2024-03-06T08:41:43;6.50;99.90
41694;DHT22;27377;50.666;9.150;2024-03-06T08:44:27;6.50;99.90
41694;DHT22;27377;50.666;9.150;2024-03-06T08:47:12;6.50;99.90
41694;DHT22;27377;50.666;9.150;2024-03-06T08:49:56;6.50;99.90
41694;DHT22;27377;50.666;9.150;2024-03-06T08:52:41;6.50;99.90
41694;DHT22;27377;50.666;9.150;2024-03-06T08:55:25;6.50;99.90
41694;DHT22;27377;50.666;9.150;2024-03-06T08:58:09;6.50;99.90
41694;DHT22;27377;50.666;9.150;2024-03-06T09:00:53;6.60;99.90
41694;DHT22;27377;50.666;9.150;2024-03-06T09:03:37;6.60;99.90
41694;DHT22;27377;50.666;9.150;2024-03-06T09:06:21;6.60;99.90
41694;DHT22;27377;50.666;9.150;2024-03-06T09:09:05;6.60;99.90
41694;DHT22;27377;50.666;9.150;2024-03-06T09:11:49;6.60;99.90
41694;DHT22;27377;50.666;9.150;2024-03-06T09:14:34;6.60;99.90
41694;DHT22;27377;50.666;9.150;2024-03-06T09:17:18;6.60;99.90
41694;DHT22;27377;50.666;9.150;2024-03-06T09:20:03;6.60;99.90
41694;DHT22;27377;50.666;9.150;2024-03-06T09:22:53;6.70;99.90
41694;DHT22;27377;50.666;9.150;2024-03-06T09:25:40;6.70;99.90
41694;DHT22;27377;50.666;9.150;2024-03-06T09:28:24;6.70;99.90
41694;DHT22;27377;50.666;9.150;2024-03-06T09:31:08;6.70;99.90
41694;DHT22;27377;50.666;9.150;2024-03-06T09:33:52;6.70;99.90
41694;DHT22;27377;50.666;9.150;2024-03-06T09:36:36;6.80;99.90
41694;DHT22;27377;50.666;9.150;2024-03-06T09:39:20;6.80;99.90
41694;DHT22;27377;50.666;9.150;2024-03-06T09:42:07;6.80;99.90
41694;DHT22;27377;50.666;9.150;2024-03-06T09:44:52;6.90;99.90
41694;DHT22;27377;50.666;9.150;2024-03-06T09:47:37;6.90;99.90
41694;DHT22;27377;50.666;9.150;2024-03-06T09:50:23;6.90;99.90
41694;DHT22;27377;50.666;9.150;2024-03-06T09:53:10;6.90;99.90
41694;DHT22;27377;50.666;9.150;2024-03-06T09:55:56;6.90;99.90
41694;DHT22;27377;50.666;9.150;2024-03-06T09:58:41;7.00;99.90
41694;DHT22;27377;50.666;9.150;2024-03-06T10:01:26;7.00;99.90
41694;DHT22;27377;50.666;9.150;2024-03-06T10:04:22;7.00;99.90
41694;DHT22;27377;50.666;9.150;2024-03-06T10:07:06;7.10;99.90
41694;DHT22;27377;50.666;9.150;2024-03-06T10:09:52;7.00;99.90
41694;DHT22;27377;50.666;9.150;2024-03-06T10:12:36;7.00;99.90
41694;DHT22;27377;50.666;9.150;2024-03-06T10:15:20;7.10;99.90
41694;DHT22;27377;50.666;9.150;2024-03-06T10:18:15;7.10;99.90
41694;DHT22;27377;50.666;9.150;2024-03-06T10:21:02;7.10;99.90
41694;DHT22;27377;50.666;9.150;2024-03-06T10:23:46;7.10;99.90
41694;DHT22;27377;50.666;9.150;2024-03-06T10:26:31;7.10;99.90
41694;DHT22;27377;50.666;9.150;2024-03-06T10:29:16;7.10;99.90
41694;DHT22;27377;50.666;9.150;2024-03-06T10:32:01;7.10;99.90
41694;DHT22;27377;50.666;9.150;2024-03-06T10:34:45;7.10;99.90
41694;DHT22;27377;50.666;9.150;2024-03-06T10:37:29;7.10;99.90
41694;DHT22;27377;50.666;9.150;2024-03-06T10:40:15;7.10;99.90
41694;DHT22;27377;50.666;9.150;2024-03-06T10:43:02;7.20;99.90
41694;DHT22;27377;50.666;9.150;2024-03-06T10:46:00;7.20;99.90
41694;DHT22;27377;50.666;9.150;2024-03-06T10:48:48;7.20;99.90
41694;DHT22;27377;50.666;9.150;2024-03-06T10:51:34;7.20;99.90
41694;DHT22;27377;50.666;9.150;2024-03-06T10:54:19;7.20;99.90
41694;DHT22;27377;50.666;9.150;2024-03-06T10:57:05;7.10;99.90
41694;DHT22;27377;50.666;9.150;2024-03-06T10:59:50;7.10;99.90
41694;DHT22;27377;50.666;9.150;2024-03-06T11:02:35;7.20;99.90
41694;DHT22;27377;50.666;9.150;2024-03-06T11:05:22;7.20;99.90
41694;DHT22;27377;50.666;9.150;2024-03-06T11:08:11;7.20;99.90
41694;DHT22;27377;50.666;9.150;2024-03-06T11:11:18;7.20;99.90
41694;DHT22;27377;50.666;9.150;2024-03-06T11:14:06;7.20;99.90
41694;DHT22;27377;50.666;9.150;2024-03-06T11:17:05;7.30;99.90
41694;DHT22;27377;50.666;9.150;2024-03-06T11:28:37;7.30;99.90
41694;DHT22;27377;50.666;9.150;2024-03-06T11:31:25;7.40;99.90
41694;DHT22;27377;50.666;9.150;2024-03-06T11:34:11;7.40;99.90
41694;DHT22;27377;50.666;9.150;2024-03-06T11:37:02;7.40;99.90
41694;DHT22;27377;50.666;9.150;2024-03-06T11:39:48;7.40;99.90
41694;DHT22;27377;50.666;9.150;2024-03-06T11:42:33;7.40;99.90
41694;DHT22;27377;50.666;9.150;2024-03-06T11:45:20;7.40;99.90
41694;DHT22;27377;50.666;9.150;2024-03-06T11:48:06;7.40;99.90
41694;DHT22;27377;50.666;9.150;2024-03-06T11:50:51;7.40;99.90
41694;DHT22;27377;50.666;9.150;2024-03-06T11:53:35;7.40;99.90
41694;DHT22;27377;50.666;9.150;2024-03-06T11:56:20;7.40;99.90
41694;DHT22;27377;50.666;9.150;2024-03-06T11:59:12;7.40;99.90
41694;DHT22;27377;50.666;9.150;2024-03-06T12:01:59;7.50;99.90
41694;DHT22;27377;50.666;9.150;2024-03-06T12:04:46;7.50;99.90
41694;DHT22;27377;50.666;9.150;2024-03-06T12:07:31;7.50;99.90
41694;DHT22;27377;50.666;9.150;2024-03-06T12:12:45;7.50;99.90
41694;DHT22;27377;50.666;9.150;2024-03-06T12:15:30;7.50;99.90
41694;DHT22;27377;50.666;9.150;2024-03-06T12:18:17;7.50;99.90
41694;DHT22;27377;50.666;9.150;2024-03-06T12:21:02;7.50;99.90
41694;DHT22;27377;50.666;9.150;2024-03-06T12:23:46;7.50;99.90
41694;DHT22;27377;50.666;9.150;2024-03-06T12:26:30;7.50;99.90
41694;DHT22;27377;50.666;9.150;2024-03-06T12:29:18;7.50;99.90
41694;DHT22;27377;50.666;9.150;2024-03-06T12:32:16;7.50;99.90
41694;DHT22;27377;50.666;9.150;2024-03-06T12:35:00;7.50;99.90
41694;DHT22;27377;50.666;9.150;2024-03-06T12:37:44;7.60;99.90
41694;DHT22;27377;50.666;9.150;2024-03-06T12:40:28;7.60;99.90
41694;DHT22;27377;50.666;9.150;2024-03-06T12:43:12;7.60;99.90
41694;DHT22;27377;50.666;9.150;2024-03-06T12:45:57;7.60;99.90
41694;DHT22;27377;50.666;9.150;2024-03-06T12:48:41;7.60;99.90
41694;DHT22;27377;50.666;9.150;2024-03-06T12:51:26;7.60;99.90
41694;DHT22;27377;50.666;9.150;2024-03-06T12:54:10;7.60;99.90
41694;DHT22;27377;50.666;9.150;2024-03-06T12:56:54;7.60;99.90
41694;DHT22;27377;50.666;9.150;2024-03-06T12:59:39;7.60;99.90
41694;DHT22;27377;50.666;9.150;2024-03-06T13:02:23;7.60;99.90
41694;DHT22;27377;50.666;9.150;2024-03-06T13:05:07;7.60;99.90
41694;DHT22;27377;50.666;9.150;2024-03-06T13:07:51;7.60;99.90
41694;DHT22;27377;50.666;9.150;2024-03-06T13:10:35;7.60;99.90
41694;DHT22;27377;50.666;9.150;2024-03-06T13:13:19;7.60;99.90
41694;DHT22;27377;50.666;9.150;2024-03-06T13:16:04;7.60;99.90
41694;DHT22;27377;50.666;9.150;2024-03-06T13:18:48;7.60;99.90
41694;DHT22;27377;50.666;9.150;2024-03-06T13:21:33;7.60;99.90
41694;DHT22;27377;50.666;9.150;2024-03-06T13:24:17;7.60;99.90
41694;DHT22;27377;50.666;9.150;2024-03-06T13:27:01;7.60;99.90
41694;DHT22;27377;50.666;9.150;2024-03-06T13:29:46;7.60;99.90
41694;DHT22;27377;50.666;9.150;2024-03-06T13:32:30;7.70;99.90
41694;DHT22;27377;50.666;9.150;2024-03-06T13:35:14;7.60;99.90
41694;DHT22;27377;50.666;9.150;2024-03-06T13:37:58;7.60;99.90
41694;DHT22;27377;50.666;9.150;2024-03-06T13:40:42;7.60;99.90
41694;DHT22;27377;50.666;9.150;2024-03-06T13:43:26;7.60;99.90
41694;DHT22;27377;50.666;9.150;2024-03-06T13:46:10;7.60;99.90
41694;DHT22;27377;50.666;9.150;2024-03-06T13:48:54;7.60;99.90
41694;DHT22;27377;50.666;9.150;2024-03-06T13:51:38;7.70;99.90
41694;DHT22;27377;50.666;9.150;2024-03-06T13:54:22;7.70;99.90
41694;DHT22;27377;50.666;9.150;2024-03-06T13:57:08;7.70;99.90
41694;DHT22;27377;50.666;9.150;2024-03-06T13:59:52;7.70;99.90
41694;DHT22;27377;50.666;9.150;2024-03-06T14:02:36;7.70;99.90
41694;DHT22;27377;50.666;9.150;2024-03-06T14:05:20;7.70;99.90
41694;DHT22;27377;50.666;9.150;2024-03-06T14:08:08;7.70;99.90
41694;DHT22;27377;50.666;9.150;2024-03-06T14:10:55;7.70;99.90
41694;DHT22;27377;50.666;9.150;2024-03-06T14:13:40;7.60;99.90
41694;DHT22;27377;50.666;9.150;2024-03-06T14:16:24;7.60;99.90
41694;DHT22;27377;50.666;9.150;2024-03-06T14:19:08;7.60;99.90
41694;DHT22;27377;50.666;9.150;2024-03-06T14:21:52;7.60;99.90
41694;DHT22;27377;50.666;9.150;2024-03-06T14:24:36;7.60;99.90
41694;DHT22;27377;50.666;9.150;2024-03-06T14:27:21;7.60;99.90
41694;DHT22;27377;50.666;9.150;2024-03-06T14:30:05;7.60;99.90
41694;DHT22;27377;50.666;9.150;2024-03-06T14:32:54;7.60;99.90
41694;DHT22;27377;50.666;9.150;2024-03-06T14:35:38;7.60;99.90
41694;DHT22;27377;50.666;9.150;2024-03-06T14:38:22;7.60;99.90
41694;DHT22;27377;50.666;9.150;2024-03-06T14:41:06;7.60;99.90
41694;DHT22;27377;50.666;9.150;2024-03-06T14:43:51;7.60;99.90
41694;DHT22;27377;50.666;9.150;2024-03-06T14:46:35;7.60;99.90
41694;DHT22;27377;50.666;9.150;2024-03-06T14:49:20;7.60;99.90
41694;DHT22;27377;50.666;9.150;2024-03-06T14:52:04;7.60;99.90
41694;DHT22;27377;50.666;9.150;2024-03-06T14:54:49;7.60;99.90
41694;DHT22;27377;50.666;9.150;2024-03-06T14:57:33;7.60;99.90
41694;DHT22;27377;50.666;9.150;2024-03-06T15:00:17;7.60;99.90
41694;DHT22;27377;50.666;9.150;2024-03-06T15:03:04;7.70;99.90
41694;DHT22;27377;50.666;9.150;2024-03-06T15:05:48;7.70;99.90
41694;DHT22;27377;50.666;9.150;2024-03-06T15:08:33;7.60;99.90
41694;DHT22;27377;50.666;9.150;2024-03-06T15:11:19;7.60;99.90
41694;DHT22;27377;50.666;9.150;2024-03-06T15:14:05;7.60;99.90
41694;DHT22;27377;50.666;9.150;2024-03-06T15:16:51;7.70;99.90
41694;DHT22;27377;50.666;9.150;2024-03-06T15:19:35;7.70;99.90
41694;DHT22;27377;50.666;9.150;2024-03-06T15:22:21;7.60;99.90
41694;DHT22;27377;50.666;9.150;2024-03-06T15:25:05;7.60;99.90
41694;DHT22;27377;50.666;9.150;2024-03-06T15:27:51;7.60;99.90
41694;DHT22;27377;50.666;9.150;2024-03-06T15:30:35;7.60;99.90
41694;DHT22;27377;50.666;9.150;2024-03-06T15:33:21;7.60;99.90
41694;DHT22;27377;50.666;9.150;2024-03-06T15:36:05;7.60;99.90
41694;DHT22;27377;50.666;9.150;2024-03-06T15:38:49;7.60;99.90
41694;DHT22;27377;50.666;9.150;2024-03-06T15:41:33;7.60;99.90
41694;DHT22;27377;50.666;9.150;2024-03-06T15:44:17;7.60;99.90
41694;DHT22;27377;50.666;9.150;2024-03-06T15:47:01;7.60;99.90
41694;DHT22;27377;50.666;9.150;2024-03-06T15:49:47;7.60;99.90
41694;DHT22;27377;50.666;9.150;2024-03-06T15:52:31;7.60;99.90
41694;DHT22;27377;50.666;9.150;2024-03-06T15:55:15;7.60;99.90
41694;DHT22;27377;50.666;9.150;2024-03-06T15:57:59;7.60;99.90
41694;DHT22;27377;50.666;9.150;2024-03-06T16:00:43;7.60;99.90
41694;DHT22;27377;50.666;9.150;2024-03-06T16:03:27;7.60;99.90
41694;DHT22;27377;50.666;9.150;2024-03-06T16:06:12;7.60;99.90
41694;DHT22;27377;50.666;9.150;2024-03-06T16:08:57;7.60;99.90
41694;DHT22;27377;50.666;9.150;2024-03-06T16:11:41;7.60;99.90
41694;DHT22;27377;50.666;9.150;2024-03-06T16:14:25;7.60;99.90
41694;DHT22;27377;50.666;9.150;2024-03-06T16:17:10;7.50;99.90
41694;DHT22;27377;50.666;9.150;2024-03-06T16:19:54;7.60;99.90
41694;DHT22;27377;50.666;9.150;2024-03-06T16:22:38;7.60;99.90
41694;DHT22;27377;50.666;9.150;2024-03-06T16:25:22;7.50;99.90
41694;DHT22;27377;50.666;9.150;2024-03-06T16:28:06;7.60;99.90
41694;DHT22;27377;50.666;9.150;2024-03-06T16:30:51;7.50;99.90
41694;DHT22;27377;50.666;9.150;2024-03-06T16:33:37;7.50;99.90
41694;DHT22;27377;50.666;9.150;2024-03-06T16:36:21;7.50;99.90
41694;DHT22;27377;50.666;9.150;2024-03-06T16:39:05;7.60;99.90
41694;DHT22;27377;50.666;9.150;2024-03-06T16:41:50;7.50;99.90
41694;DHT22;27377;50.666;9.150;2024-03-06T16:44:34;7.60;99.90
41694;DHT22;27377;50.666;9.150;2024-03-06T16:47:18;7.60;99.90
41694;DHT22;27377;50.666;9.150;2024-03-06T16:50:02;7.50;99.90
41694;DHT22;27377;50.666;9.150;2024-03-06T16:52:46;7.60;99.90
41694;DHT22;27377;50.666;9.150;2024-03-06T16:55:30;7.50;99.90
41694;DHT22;27377;50.666;9.150;2024-03-06T16:58:14;7.50;99.90
41694;DHT22;27377;50.666;9.150;2024-03-06T17:00:59;7.50;99.90
41694;DHT22;27377;50.666;9.150;2024-03-06T17:03:43;7.50;99.90
41694;DHT22;27377;50.666;9.150;2024-03-06T17:06:29;7.50;99.90
41694;DHT22;27377;50.666;9.150;2024-03-06T17:09:13;7.40;99.90
41694;DHT22;27377;50.666;9.150;2024-03-06T17:11:57;7.40;99.90
41694;DHT22;27377;50.666;9.150;2024-03-06T17:14:41;7.40;99.90
41694;DHT22;27377;50.666;9.150;2024-03-06T17:17:25;7.40;99.90
41694;DHT22;27377;50.666;9.150;2024-03-06T17:20:09;7.40;99.90
41694;DHT22;27377;50.666;9.150;2024-03-06T17:22:53;7.30;99.90
41694;DHT22;27377;50.666;9.150;2024-03-06T17:25:40;7.30;99.90
41694;DHT22;27377;50.666;9.150;2024-03-06T17:28:24;7.30;99.90
41694;DHT22;27377;50.666;9.150;2024-03-06T17:31:08;7.30;99.90
41694;DHT22;27377;50.666;9.150;2024-03-06T17:33:52;7.30;99.90
41694;DHT22;27377;50.666;9.150;2024-03-06T17:36:37;7.30;99.90
41694;DHT22;27377;50.666;9.150;2024-03-06T17:39:21;7.30;99.90
41694;DHT22;27377;50.666;9.150;2024-03-06T17:42:09;7.20;99.90
41694;DHT22;27377;50.666;9.150;2024-03-06T17:44:53;7.20;99.90
41694;DHT22;27377;50.666;9.150;2024-03-06T17:47:37;7.20;99.90